createdAt,value
2018-04-30T00:00:01.744Z,57.52
2018-04-30T00:02:27.688Z,57.40
2018-04-30T00:04:53.692Z,57.60
2018-04-30T00:07:19.624Z,57.71
2018-04-30T00:09:45.560Z,57.74
2018-04-30T00:12:11.516Z,58.28
2018-04-30T00:14:37.525Z,57.91
2018-04-30T00:17:03.471Z,58.33
2018-04-30T00:19:29.435Z,57.05
2018-04-30T00:21:55.408Z,57.80
2018-04-30T00:24:21.349Z,58.44
2018-04-30T00:26:47.296Z,57.75
2018-04-30T00:29:13.329Z,57.47
2018-04-30T00:31:39.265Z,57.13
2018-04-30T00:34:05.208Z,58.11
2018-04-30T00:36:31.221Z,57.67
2018-04-30T00:38:57.164Z,57.63
2018-04-30T00:41:23.109Z,57.44
2018-04-30T00:43:49.063Z,57.36
2018-04-30T00:46:14.996Z,57.31
2018-04-30T00:48:40.944Z,57.77
2018-04-30T00:51:06.884Z,58.29
2018-04-30T00:53:32.868Z,57.74
2018-04-30T00:55:58.877Z,57.90
2018-04-30T00:58:24.845Z,57.52
2018-04-30T01:00:50.789Z,57.90
2018-04-30T01:03:16.725Z,57.35
2018-04-30T01:05:42.659Z,57.90
2018-04-30T01:08:08.605Z,57.53
2018-04-30T01:10:34.536Z,58.09
2018-04-30T01:13:00.476Z,57.79
2018-04-30T01:15:26.425Z,57.03
2018-04-30T01:17:52.367Z,57.66
2018-04-30T01:20:18.368Z,57.98
2018-04-30T01:22:44.342Z,58.06
2018-04-30T01:25:10.278Z,57.81
2018-04-30T01:27:36.216Z,57.38
2018-04-30T01:30:02.324Z,57.16
2018-04-30T01:32:28.260Z,57.60
2018-04-30T01:34:54.212Z,56.99
2018-04-30T01:37:20.196Z,57.88
2018-04-30T01:39:46.156Z,57.02
2018-04-30T01:42:12.096Z,58.09
2018-04-30T01:44:38.148Z,57.23
2018-04-30T01:47:04.088Z,57.74
2018-04-30T01:49:30.033Z,57.71
2018-04-30T01:51:56.041Z,57.43
2018-04-30T01:54:22.000Z,57.99
2018-04-30T01:56:47.943Z,57.70
2018-04-30T01:59:13.916Z,57.60
2018-04-30T02:01:39.883Z,58.01
2018-04-30T02:04:05.845Z,57.11
2018-04-30T02:06:31.892Z,57.19
2018-04-30T02:08:57.848Z,57.29
2018-04-30T02:11:23.805Z,58.12
2018-04-30T02:13:49.736Z,57.54
2018-04-30T02:16:15.696Z,57.48
2018-04-30T02:18:41.652Z,57.40
2018-04-30T02:21:07.632Z,57.73
2018-04-30T02:23:33.584Z,57.53
2018-04-30T02:25:59.544Z,57.04
2018-04-30T02:28:25.529Z,57.84
2018-04-30T02:30:51.475Z,58.24
2018-04-30T02:33:17.427Z,57.49
2018-04-30T02:35:43.380Z,56.95
2018-04-30T02:38:09.347Z,57.45
2018-04-30T02:40:35.280Z,57.71
2018-04-30T02:43:01.232Z,57.64
2018-04-30T02:45:27.200Z,57.70
2018-04-30T02:47:53.200Z,58.21
2018-04-30T02:50:19.172Z,57.63
2018-04-30T02:52:45.128Z,58.07
2018-04-30T02:55:11.060Z,57.90
2018-04-30T02:57:37.001Z,57.32
2018-04-30T03:00:02.967Z,57.29
2018-04-30T03:02:28.912Z,56.99
2018-04-30T03:04:54.860Z,57.22
2018-04-30T03:07:20.811Z,57.49
2018-04-30T03:09:46.858Z,57.92
2018-04-30T03:12:12.776Z,57.19
2018-04-30T03:14:38.716Z,57.46
2018-04-30T03:17:04.662Z,57.66
2018-04-30T03:19:30.622Z,58.18
2018-04-30T03:21:56.577Z,57.01
2018-04-30T03:24:22.517Z,58.03
2018-04-30T03:26:48.460Z,57.45
2018-04-30T03:29:14.393Z,57.13
2018-04-30T03:31:40.348Z,58.42
2018-04-30T03:34:06.285Z,57.11
2018-04-30T03:36:32.221Z,56.98
2018-04-30T03:38:58.158Z,57.32
2018-04-30T03:41:24.112Z,56.94
2018-04-30T03:43:50.053Z,57.62
2018-04-30T03:46:16.024Z,57.73
2018-04-30T03:48:41.963Z,57.28
2018-04-30T03:51:07.913Z,57.39
2018-04-30T03:53:33.857Z,57.78
2018-04-30T03:55:59.791Z,57.03
2018-04-30T03:58:25.756Z,57.72
2018-04-30T04:00:51.740Z,58.04
2018-04-30T04:03:17.709Z,57.62
2018-04-30T04:05:43.661Z,57.54
2018-04-30T04:08:09.604Z,57.66
2018-04-30T04:10:35.549Z,57.47
2018-04-30T04:13:01.619Z,57.44
2018-04-30T04:15:27.560Z,57.51
2018-04-30T04:17:53.498Z,57.26
2018-04-30T04:20:19.474Z,57.41
2018-04-30T04:22:45.448Z,57.95
2018-04-30T04:25:11.459Z,57.23
2018-04-30T04:27:37.405Z,57.77
2018-04-30T04:30:03.363Z,57.80
2018-04-30T04:32:29.308Z,57.71
2018-04-30T04:34:55.246Z,57.27
2018-04-30T04:37:21.199Z,57.29
2018-04-30T04:39:47.133Z,57.59
2018-04-30T04:42:13.077Z,57.43
2018-04-30T04:44:39.021Z,57.64
2018-04-30T04:47:04.989Z,57.66
2018-04-30T04:49:30.939Z,58.13
2018-04-30T04:51:56.875Z,57.29
2018-04-30T04:54:22.810Z,57.74
2018-04-30T04:56:48.747Z,57.49
2018-04-30T04:59:14.692Z,57.30
2018-04-30T05:01:40.633Z,57.43
2018-04-30T05:04:06.568Z,57.59
2018-04-30T05:06:32.500Z,57.58
2018-04-30T05:08:58.440Z,57.49
2018-04-30T05:11:24.380Z,58.14
2018-04-30T05:13:50.355Z,57.99
2018-04-30T05:16:16.323Z,57.54
2018-04-30T05:18:42.274Z,57.41
2018-04-30T05:21:08.243Z,57.36
2018-04-30T05:23:34.191Z,58.50
2018-04-30T05:26:00.159Z,57.90
2018-04-30T05:28:26.115Z,57.92
2018-04-30T05:30:52.052Z,57.61
2018-04-30T05:33:18.025Z,58.01
2018-04-30T05:35:43.982Z,58.08
2018-04-30T05:38:09.924Z,57.39
2018-04-30T05:40:35.911Z,59.29
2018-04-30T05:43:01.860Z,57.94
2018-04-30T05:45:27.812Z,58.18
2018-04-30T05:47:53.753Z,57.56
2018-04-30T05:50:19.743Z,57.64
2018-04-30T05:52:45.708Z,57.79
2018-04-30T05:55:11.810Z,58.37
2018-04-30T05:57:37.622Z,57.59
2018-04-30T06:00:03.564Z,58.63
2018-04-30T06:02:29.508Z,57.99
2018-04-30T06:04:55.480Z,57.94
2018-04-30T06:07:21.422Z,58.15
2018-04-30T06:09:47.435Z,57.69
2018-04-30T06:12:13.442Z,57.82
2018-04-30T06:14:39.559Z,58.27
2018-04-30T06:17:05.503Z,58.24
2018-04-30T06:19:31.479Z,58.28
2018-04-30T06:21:57.636Z,57.80
2018-04-30T06:24:23.619Z,58.58
2018-04-30T06:26:49.685Z,58.02
2018-04-30T06:29:15.519Z,57.61
2018-04-30T06:31:41.469Z,57.72
2018-04-30T06:34:07.427Z,57.71
2018-04-30T06:36:33.387Z,57.55
2018-04-30T06:38:59.324Z,57.47
2018-04-30T06:41:25.268Z,57.76
2018-04-30T06:43:51.209Z,58.13
2018-04-30T06:46:17.155Z,58.35
2018-04-30T06:48:43.187Z,57.98
2018-04-30T06:51:09.164Z,57.72
2018-04-30T06:53:35.252Z,57.81
2018-04-30T06:56:01.090Z,58.04
2018-04-30T06:58:27.039Z,57.69
2018-04-30T07:00:53.000Z,57.82
2018-04-30T07:03:19.053Z,57.13
2018-04-30T07:05:44.987Z,57.85
2018-04-30T07:08:10.949Z,56.35
2018-04-30T07:10:36.888Z,56.84
2018-04-30T07:13:02.863Z,56.70
2018-04-30T07:15:28.806Z,56.92
2018-04-30T07:17:54.741Z,57.68
2018-04-30T07:20:20.694Z,56.96
2018-04-30T07:22:46.628Z,57.28
2018-04-30T07:25:12.613Z,57.64
2018-04-30T07:27:38.633Z,56.61
2018-04-30T07:30:04.502Z,56.39
2018-04-30T07:32:30.483Z,56.84
2018-04-30T07:34:56.445Z,56.86
2018-04-30T07:37:22.405Z,56.30
2018-04-30T07:39:48.363Z,56.78
2018-04-30T07:42:14.324Z,57.43
2018-04-30T07:44:40.264Z,57.39
2018-04-30T07:47:06.236Z,58.08
2018-04-30T07:49:32.176Z,57.73
2018-04-30T07:51:58.140Z,57.83
2018-04-30T07:54:24.096Z,58.49
2018-04-30T07:56:50.031Z,58.36
2018-04-30T07:59:16.091Z,58.03
2018-04-30T08:01:42.034Z,58.14
2018-04-30T08:04:08.018Z,58.32
2018-04-30T08:06:33.948Z,58.23
2018-04-30T08:08:59.912Z,58.43
2018-04-30T08:11:25.899Z,57.64
2018-04-30T08:13:51.923Z,57.13
2018-04-30T08:16:17.865Z,55.17
2018-04-30T08:18:43.804Z,54.48
2018-04-30T08:21:09.890Z,53.81
2018-04-30T08:23:35.926Z,53.35
2018-04-30T08:26:01.877Z,53.53
2018-04-30T08:28:27.842Z,53.71
2018-04-30T08:30:53.924Z,54.07
2018-04-30T08:33:19.905Z,54.18
2018-04-30T08:35:45.911Z,53.96
2018-04-30T08:38:11.858Z,55.44
2018-04-30T08:40:37.815Z,54.02
2018-04-30T08:43:03.773Z,54.57
2018-04-30T08:45:29.711Z,53.50
2018-04-30T08:47:55.739Z,53.37
2018-04-30T08:50:21.676Z,54.15
2018-04-30T08:52:47.619Z,52.39
2018-04-30T08:55:13.576Z,52.29
2018-04-30T08:57:39.541Z,52.49
2018-04-30T09:00:05.472Z,52.02
2018-04-30T09:02:31.447Z,51.38
2018-04-30T09:04:57.427Z,51.61
2018-04-30T09:07:23.468Z,50.83
2018-04-30T09:09:49.439Z,51.04
2018-04-30T09:12:15.381Z,51.76
2018-04-30T09:14:41.363Z,51.73
2018-04-30T09:17:07.291Z,51.53
2018-04-30T09:19:33.235Z,52.66
2018-04-30T09:21:59.199Z,52.10
2018-04-30T09:24:25.136Z,52.11
2018-04-30T09:26:51.089Z,53.55
2018-04-30T09:29:17.031Z,54.31
2018-04-30T09:31:42.996Z,51.46
2018-04-30T09:34:08.956Z,52.18
2018-04-30T09:36:34.929Z,52.16
2018-04-30T09:39:00.888Z,52.86
2018-04-30T09:41:26.823Z,52.84
2018-04-30T09:43:52.771Z,52.69
2018-04-30T09:46:18.718Z,52.79
2018-04-30T09:48:44.661Z,53.13
2018-04-30T09:51:10.608Z,53.12
2018-04-30T09:53:36.574Z,53.50
2018-04-30T09:56:02.536Z,53.64
2018-04-30T09:58:28.495Z,53.38
2018-04-30T10:00:54.476Z,53.10
2018-04-30T10:03:20.420Z,52.55
2018-04-30T10:05:46.356Z,52.78
2018-04-30T10:08:12.308Z,53.10
2018-04-30T10:10:38.276Z,52.19
2018-04-30T10:13:04.231Z,52.71
2018-04-30T10:15:30.173Z,51.93
2018-04-30T10:17:56.144Z,51.72
2018-04-30T10:20:22.164Z,51.42
2018-04-30T10:22:48.211Z,51.51
2018-04-30T10:25:14.165Z,52.21
2018-04-30T10:27:40.120Z,51.03
2018-04-30T10:30:06.082Z,51.09
2018-04-30T10:32:32.017Z,50.56
2018-04-30T10:34:58.032Z,50.44
2018-04-30T10:37:24.003Z,50.99
2018-04-30T10:39:49.997Z,50.23
2018-04-30T10:42:15.950Z,50.44
2018-04-30T10:44:41.969Z,50.23
2018-04-30T10:47:07.908Z,50.67
2018-04-30T10:49:33.868Z,49.56
2018-04-30T10:51:59.825Z,50.21
2018-04-30T10:54:25.776Z,50.31
2018-04-30T10:56:51.761Z,50.02
2018-04-30T10:59:17.717Z,50.09
2018-04-30T11:01:43.651Z,49.90
2018-04-30T11:04:09.614Z,50.81
2018-04-30T11:06:35.568Z,49.49
2018-04-30T11:09:01.520Z,51.00
2018-04-30T11:11:27.452Z,50.24
2018-04-30T11:13:53.387Z,49.83
2018-04-30T11:16:19.349Z,49.90
2018-04-30T11:18:45.313Z,49.56
2018-04-30T11:21:11.283Z,49.62
2018-04-30T11:23:37.308Z,49.22
2018-04-30T11:26:03.260Z,49.27
2018-04-30T11:28:29.196Z,49.35
2018-04-30T11:30:55.140Z,49.38
2018-04-30T11:33:21.086Z,49.87
2018-04-30T11:35:47.029Z,49.40
2018-04-30T11:38:12.995Z,49.94
2018-04-30T11:40:38.939Z,50.12
2018-04-30T11:43:04.875Z,49.01
2018-04-30T11:45:30.848Z,49.61
2018-04-30T11:47:56.817Z,49.57
2018-04-30T11:50:22.751Z,49.71
2018-04-30T11:52:48.696Z,51.23
2018-04-30T11:55:14.643Z,49.86
2018-04-30T11:57:40.609Z,50.22
2018-04-30T12:00:06.556Z,49.60
2018-04-30T12:02:32.585Z,49.16
2018-04-30T12:04:58.561Z,48.74
2018-04-30T12:07:24.447Z,48.85
2018-04-30T12:09:50.432Z,49.02
2018-04-30T12:12:16.457Z,48.55
2018-04-30T12:14:42.436Z,48.75
2018-04-30T12:17:08.397Z,49.31
2018-04-30T12:22:20.397Z,50.47
2018-04-30T12:24:46.368Z,49.57
2018-04-30T12:27:12.370Z,49.74
2018-04-30T12:29:38.385Z,48.86
2018-04-30T12:32:04.340Z,49.86
2018-04-30T12:34:30.341Z,48.66
2018-04-30T12:36:56.319Z,49.19
2018-04-30T12:39:22.295Z,49.46
2018-04-30T12:41:48.251Z,49.18
2018-04-30T12:44:14.255Z,50.13
2018-04-30T12:46:40.237Z,50.41
2018-04-30T12:49:06.310Z,50.40
2018-04-30T12:51:32.326Z,50.12
2018-04-30T12:53:58.289Z,49.59
2018-04-30T12:56:24.301Z,50.02
2018-04-30T12:58:50.270Z,49.94
2018-04-30T13:01:16.254Z,49.96
2018-04-30T13:03:42.288Z,49.86
2018-04-30T13:06:08.278Z,49.56
2018-04-30T13:08:34.230Z,49.54
2018-04-30T13:11:00.197Z,49.24
2018-04-30T13:13:26.194Z,49.17
2018-04-30T13:15:52.189Z,49.03
2018-04-30T13:18:18.138Z,49.05
2018-04-30T13:20:44.125Z,49.33
2018-04-30T13:23:10.114Z,49.65
2018-04-30T13:25:36.104Z,49.39
2018-04-30T13:28:02.064Z,49.57
2018-04-30T13:30:28.035Z,50.39
2018-04-30T13:32:53.993Z,50.36
2018-04-30T13:35:19.952Z,50.91
2018-04-30T13:37:45.922Z,50.95
2018-04-30T13:40:12.203Z,51.78
2018-04-30T13:42:38.207Z,51.61
2018-04-30T13:45:04.199Z,51.59
2018-04-30T13:47:30.197Z,51.94
2018-04-30T13:49:56.172Z,51.62
2018-04-30T13:52:22.313Z,51.18
2018-04-30T13:54:48.264Z,51.58
2018-04-30T14:02:18.655Z,50.16
2018-04-30T14:04:44.551Z,50.39
2018-04-30T14:07:10.532Z,50.29
2018-04-30T14:09:36.528Z,49.69
2018-04-30T14:12:02.519Z,49.67
2018-04-30T14:14:28.529Z,50.04
2018-04-30T14:16:54.873Z,49.04
2018-04-30T14:19:20.857Z,49.29
2018-04-30T14:21:46.817Z,49.53
2018-04-30T14:24:12.803Z,49.43
2018-04-30T14:26:38.767Z,49.33
2018-04-30T14:29:04.748Z,49.59
2018-04-30T14:31:30.722Z,49.58
2018-04-30T14:33:56.673Z,49.98
2018-04-30T14:36:22.641Z,49.56
2018-04-30T14:38:48.622Z,49.26
2018-04-30T14:41:14.603Z,49.63
2018-04-30T14:43:40.565Z,48.84
2018-04-30T14:46:06.521Z,48.58
2018-04-30T14:48:32.510Z,48.95
2018-04-30T14:50:59.076Z,47.95
2018-04-30T14:53:25.097Z,47.84
2018-04-30T15:00:58.485Z,46.96
2018-04-30T15:03:24.482Z,46.71
2018-04-30T15:05:50.454Z,46.08
2018-04-30T15:08:17.465Z,47.42
2018-04-30T15:10:43.435Z,47.39
2018-04-30T15:13:09.454Z,47.46
2018-04-30T15:15:35.424Z,48.00
2018-04-30T15:18:01.447Z,47.74
2018-04-30T15:20:27.475Z,46.57
2018-04-30T15:22:53.475Z,47.57
2018-04-30T15:25:19.453Z,46.55
2018-04-30T15:32:49.012Z,46.01
2018-04-30T15:35:15.040Z,46.75
2018-04-30T15:37:41.025Z,46.55
2018-04-30T15:40:07.031Z,46.95
2018-04-30T15:45:08.611Z,48.47
2018-04-30T15:47:34.618Z,48.12
2018-04-30T15:50:00.576Z,47.37
2018-04-30T15:52:26.555Z,47.48
2018-04-30T16:02:30.729Z,46.80
2018-04-30T16:04:56.810Z,47.95
2018-04-30T16:30:04.920Z,47.48
2018-04-30T16:32:30.980Z,48.15
2018-04-30T16:34:57.057Z,48.46
2018-04-30T16:37:23.044Z,48.17
2018-04-30T16:39:49.289Z,48.20
2018-04-30T16:42:15.399Z,49.11
2018-04-30T17:04:57.381Z,50.42
2018-04-30T17:07:23.381Z,50.57
2018-04-30T17:09:49.370Z,50.93
2018-04-30T17:12:15.345Z,50.77
2018-04-30T17:14:41.318Z,50.96
2018-04-30T17:17:07.320Z,51.16
2018-04-30T17:19:33.300Z,51.20
2018-04-30T17:21:59.288Z,51.82
2018-04-30T17:24:25.284Z,51.25
2018-04-30T17:26:51.310Z,51.07
2018-04-30T17:29:17.869Z,51.24
2018-04-30T17:31:43.843Z,51.18
2018-04-30T17:34:09.849Z,51.05
2018-04-30T17:36:35.860Z,51.39
2018-04-30T17:39:01.800Z,51.69
2018-04-30T17:41:27.785Z,51.74
2018-04-30T17:43:53.772Z,51.55
2018-04-30T17:46:19.772Z,51.51
2018-04-30T17:48:45.736Z,51.81
2018-04-30T17:51:11.716Z,51.67
2018-04-30T17:53:37.692Z,52.11
2018-04-30T17:56:03.678Z,51.76
2018-04-30T17:58:29.659Z,52.13
2018-04-30T18:00:55.633Z,52.05
2018-04-30T18:03:21.585Z,52.02
2018-04-30T18:05:47.597Z,52.38
2018-04-30T18:08:13.569Z,51.98
2018-04-30T18:10:39.524Z,51.16
2018-04-30T18:13:05.554Z,50.92
2018-04-30T18:15:31.562Z,50.64
2018-04-30T18:17:57.578Z,51.11
2018-04-30T18:20:23.580Z,51.60
2018-04-30T18:22:49.543Z,51.80
2018-04-30T18:25:19.408Z,51.93
2018-04-30T18:27:45.374Z,51.70
2018-04-30T18:30:11.388Z,52.39
2018-04-30T18:32:37.503Z,52.37
2018-04-30T18:35:03.592Z,52.37
2018-04-30T18:37:29.693Z,52.54
2018-04-30T18:39:55.788Z,52.62
2018-04-30T18:42:22.061Z,52.70
2018-04-30T18:44:48.162Z,52.76
2018-04-30T18:47:14.210Z,52.96
2018-04-30T18:49:40.239Z,53.03
2018-04-30T18:52:06.271Z,52.89
2018-04-30T18:54:32.310Z,52.74
2018-04-30T18:56:58.388Z,53.02
2018-04-30T18:59:24.567Z,53.01
2018-04-30T19:01:50.602Z,52.67
2018-04-30T19:04:16.618Z,52.58
2018-04-30T19:06:42.646Z,52.87
2018-04-30T19:09:08.723Z,52.79
2018-04-30T19:11:34.827Z,53.02
2018-04-30T19:14:00.860Z,52.89
2018-04-30T19:16:28.961Z,52.98
2018-04-30T19:18:55.037Z,52.97
2018-04-30T19:21:22.139Z,52.98
2018-04-30T19:31:22.738Z,52.93
2018-04-30T19:33:48.951Z,52.81
2018-04-30T19:36:14.973Z,52.75
2018-04-30T19:38:41.142Z,52.59
2018-04-30T19:43:38.495Z,52.34
2018-04-30T19:56:09.856Z,52.43
2018-04-30T19:58:35.923Z,52.28
2018-04-30T20:01:02.109Z,52.14
2018-04-30T20:03:28.166Z,52.31
2018-04-30T20:05:54.194Z,52.27
2018-04-30T20:08:23.830Z,51.96
2018-04-30T20:10:49.925Z,52.24
2018-04-30T20:13:15.988Z,52.24
2018-04-30T20:15:42.270Z,52.32
2018-04-30T20:18:08.369Z,52.37
2018-04-30T20:20:34.436Z,52.67
2018-04-30T20:23:00.550Z,52.36
2018-04-30T20:25:26.598Z,52.47
2018-04-30T20:27:52.665Z,52.39
2018-04-30T20:30:18.783Z,52.30
2018-04-30T20:32:44.883Z,52.37
2018-04-30T20:35:11.142Z,52.23
2018-04-30T20:37:37.179Z,52.31
2018-04-30T20:40:03.236Z,52.18
2018-04-30T20:42:29.377Z,52.48
2018-04-30T20:44:55.405Z,52.00
2018-04-30T20:47:21.443Z,52.20
2018-04-30T20:49:47.534Z,52.05
2018-04-30T20:52:13.628Z,51.91
2018-04-30T20:54:39.677Z,51.99
2018-04-30T20:57:05.744Z,52.20
2018-04-30T20:59:31.812Z,52.20
2018-04-30T21:01:57.893Z,52.06
2018-04-30T21:04:23.969Z,51.86
2018-04-30T21:06:50.026Z,51.99
2018-04-30T21:14:21.263Z,51.86
2018-04-30T21:16:47.371Z,51.89
2018-04-30T21:19:13.489Z,51.99
2018-04-30T21:21:39.621Z,52.33
2018-04-30T21:24:05.925Z,52.03
2018-04-30T21:26:31.982Z,51.80
2018-04-30T21:28:58.010Z,51.75
2018-04-30T21:31:24.081Z,51.83
2018-04-30T21:33:50.135Z,51.73
2018-04-30T21:36:16.219Z,51.52
2018-04-30T21:38:42.313Z,51.62
2018-04-30T21:41:08.400Z,51.26
2018-04-30T21:43:34.682Z,51.64
2018-04-30T21:48:33.664Z,51.28
2018-04-30T21:50:59.998Z,51.54
2018-04-30T21:56:01.866Z,51.38
2018-04-30T22:01:00.395Z,51.63
2018-04-30T22:03:26.445Z,51.78
2018-04-30T22:05:52.551Z,51.92
2018-04-30T22:15:52.783Z,51.83
2018-04-30T22:18:18.991Z,51.63
2018-04-30T22:20:44.997Z,51.58
2018-04-30T22:23:11.650Z,51.60
2018-04-30T22:25:37.712Z,51.63
2018-04-30T22:28:03.681Z,51.33
2018-04-30T22:30:29.865Z,51.40
2018-04-30T22:32:55.845Z,51.41
2018-04-30T22:35:22.003Z,51.50
2018-04-30T22:37:48.077Z,51.37
2018-04-30T22:40:14.105Z,51.08
2018-04-30T22:42:40.141Z,51.26
2018-04-30T22:45:06.177Z,51.13
2018-04-30T22:47:32.520Z,51.39
2018-04-30T22:49:58.554Z,51.38
2018-04-30T22:52:24.594Z,51.31
2018-04-30T22:54:50.737Z,51.32
2018-04-30T22:57:16.698Z,51.27
2018-04-30T22:59:42.708Z,51.39
2018-04-30T23:02:08.751Z,51.49
2018-04-30T23:04:34.752Z,52.11
2018-04-30T23:07:00.750Z,51.38
2018-04-30T23:09:26.790Z,51.25
2018-04-30T23:11:53.337Z,50.76
2018-04-30T23:14:19.659Z,50.94
2018-04-30T23:16:45.829Z,50.95
2018-04-30T23:19:11.841Z,51.08
2018-04-30T23:26:41.115Z,51.17
2018-04-30T23:29:07.155Z,50.87
2018-04-30T23:31:33.134Z,51.10
2018-04-30T23:34:00.124Z,50.82
2018-04-30T23:36:26.142Z,50.93
2018-04-30T23:38:52.215Z,50.75
2018-04-30T23:41:18.498Z,51.01
2018-04-30T23:43:44.477Z,50.76
2018-04-30T23:46:11.090Z,52.09
2018-04-30T23:48:37.275Z,51.62
2018-04-30T23:51:03.438Z,51.40
2018-04-30T23:53:29.447Z,50.96
2018-04-30T23:55:55.428Z,52.17
2018-04-30T23:58:21.476Z,50.58
